createdAt,value
2023-03-16T00:00:10.595Z,3.62
2023-03-16T00:01:01.379Z,3.62
2023-03-16T00:01:52.258Z,3.60
2023-03-16T00:02:43.076Z,3.60
2023-03-16T00:03:33.982Z,3.60
2023-03-16T00:04:24.772Z,3.57
2023-03-16T00:05:15.566Z,3.58
2023-03-16T00:06:06.342Z,3.53
2023-03-16T00:06:57.141Z,3.50
2023-03-16T00:07:47.925Z,3.49
2023-03-16T00:08:38.727Z,3.47
2023-03-16T00:09:29.482Z,3.44
2023-03-16T00:10:20.271Z,3.42
2023-03-16T00:11:11.061Z,3.42
2023-03-16T00:12:01.841Z,3.40
2023-03-16T00:12:52.628Z,3.40
2023-03-16T00:13:43.409Z,3.39
2023-03-16T00:14:34.206Z,3.36
2023-03-16T00:15:24.992Z,3.36
2023-03-16T00:16:15.815Z,3.33
2023-03-16T00:17:06.582Z,3.33
2023-03-16T00:17:57.382Z,3.31
2023-03-16T00:18:48.170Z,3.31
2023-03-16T00:19:38.959Z,3.33
2023-03-16T00:20:29.743Z,3.31
2023-03-16T00:21:20.537Z,3.28
2023-03-16T00:22:11.323Z,3.27
2023-03-16T00:23:02.115Z,3.27
2023-03-16T00:23:52.921Z,3.27
2023-03-16T00:24:43.698Z,3.25
2023-03-16T00:25:34.486Z,3.23
2023-03-16T00:26:25.277Z,3.23
2023-03-16T00:27:16.088Z,3.20
2023-03-16T00:28:06.860Z,3.20
2023-03-16T00:28:57.641Z,3.21
2023-03-16T00:29:48.431Z,3.16
2023-03-16T00:30:39.189Z,3.15
2023-03-16T00:31:29.984Z,3.10
2023-03-16T00:32:20.759Z,3.10
2023-03-16T00:33:11.552Z,3.07
2023-03-16T00:34:02.314Z,3.07
2023-03-16T00:34:53.134Z,3.05
2023-03-16T00:35:43.993Z,3.03
2023-03-16T00:36:34.739Z,3.02
2023-03-16T00:37:25.593Z,3.03
2023-03-16T00:38:16.318Z,3.02
2023-03-16T00:39:07.181Z,3.02
2023-03-16T00:39:57.907Z,3.00
2023-03-16T00:40:48.674Z,2.97
2023-03-16T00:41:39.466Z,2.95
2023-03-16T00:42:30.261Z,2.94
2023-03-16T00:43:21.044Z,2.92
2023-03-16T00:44:11.844Z,2.89
2023-03-16T00:45:02.624Z,2.88
2023-03-16T00:45:53.417Z,2.85
2023-03-16T00:46:44.183Z,2.84
2023-03-16T00:47:34.969Z,2.81
2023-03-16T00:48:25.759Z,2.82
2023-03-16T00:49:16.564Z,2.77
2023-03-16T00:50:07.340Z,2.76
2023-03-16T00:50:58.111Z,2.73
2023-03-16T00:51:48.897Z,2.71
2023-03-16T00:52:39.684Z,2.69
2023-03-16T00:53:30.494Z,2.69
2023-03-16T00:54:21.287Z,2.67
2023-03-16T00:55:12.069Z,2.64
2023-03-16T00:56:02.904Z,2.64
2023-03-16T00:56:53.794Z,2.61
2023-03-16T00:57:44.588Z,2.61
2023-03-16T00:58:35.367Z,2.61
2023-03-16T00:59:26.175Z,2.61
2023-03-16T01:00:16.958Z,2.59
2023-03-16T01:01:07.839Z,2.59
2023-03-16T01:01:58.616Z,2.59
2023-03-16T01:02:49.456Z,2.61
2023-03-16T01:03:40.205Z,2.61
2023-03-16T01:04:30.992Z,2.59
2023-03-16T01:05:21.782Z,2.61
2023-03-16T01:06:12.555Z,2.59
2023-03-16T01:07:03.338Z,2.58
2023-03-16T01:07:54.132Z,2.58
2023-03-16T01:08:44.927Z,2.56
2023-03-16T01:09:35.713Z,2.55
2023-03-16T01:10:26.721Z,2.55
2023-03-16T01:11:17.679Z,2.56
2023-03-16T01:12:08.473Z,2.55
2023-03-16T01:12:59.256Z,2.53
2023-03-16T01:13:50.042Z,2.55
2023-03-16T01:14:40.832Z,2.53
2023-03-16T01:15:31.633Z,2.55
2023-03-16T01:16:22.478Z,2.53
2023-03-16T01:17:13.237Z,2.53
2023-03-16T01:18:04.047Z,2.53
2023-03-16T01:18:54.799Z,2.51
2023-03-16T01:19:45.599Z,2.53
2023-03-16T01:20:36.363Z,2.52
2023-03-16T01:21:27.156Z,2.52
2023-03-16T01:22:17.936Z,2.49
2023-03-16T01:23:08.722Z,2.51
2023-03-16T01:23:59.513Z,2.51
2023-03-16T01:24:50.332Z,2.48
2023-03-16T01:25:41.080Z,2.48
2023-03-16T01:26:31.852Z,2.46
2023-03-16T01:27:22.641Z,2.45
2023-03-16T01:28:13.425Z,2.45
2023-03-16T01:29:04.212Z,2.44
2023-03-16T01:29:55.003Z,2.44
2023-03-16T01:30:45.806Z,2.41
2023-03-16T01:31:36.590Z,2.44
2023-03-16T01:32:27.417Z,2.44
2023-03-16T01:33:18.168Z,2.44
2023-03-16T01:34:08.966Z,2.41
2023-03-16T01:34:59.748Z,2.41
2023-03-16T01:35:50.580Z,2.44
2023-03-16T01:36:41.331Z,2.44
2023-03-16T01:37:32.129Z,2.44
2023-03-16T01:38:22.904Z,2.44
2023-03-16T01:39:13.695Z,2.45
2023-03-16T01:40:04.472Z,2.44
2023-03-16T01:40:55.242Z,2.44
2023-03-16T01:41:46.019Z,2.45
2023-03-16T01:42:36.827Z,2.45
2023-03-16T01:43:27.617Z,2.45
2023-03-16T01:44:18.407Z,2.41
2023-03-16T01:45:09.186Z,2.44
2023-03-16T01:45:59.984Z,2.44
2023-03-16T01:46:50.743Z,2.41
2023-03-16T01:47:41.521Z,2.41
2023-03-16T01:48:32.301Z,2.41
2023-03-16T01:49:23.103Z,2.40
2023-03-16T01:50:13.892Z,2.41
2023-03-16T01:51:06.266Z,2.40
2023-03-16T01:51:55.732Z,2.38
2023-03-16T01:52:46.519Z,2.40
2023-03-16T01:53:37.310Z,2.41
2023-03-16T01:54:28.141Z,2.38
2023-03-16T01:55:18.924Z,2.40
2023-03-16T01:56:09.682Z,2.38
2023-03-16T01:57:00.467Z,2.38
2023-03-16T01:57:51.250Z,2.37
2023-03-16T01:58:42.028Z,2.38
2023-03-16T01:59:32.814Z,2.38
2023-03-16T02:00:23.706Z,2.37
2023-03-16T02:01:14.544Z,2.38
2023-03-16T02:02:05.277Z,2.35
2023-03-16T02:02:56.052Z,2.37
2023-03-16T02:03:46.849Z,2.34
2023-03-16T02:04:37.660Z,2.34
2023-03-16T02:05:28.528Z,2.34
2023-03-16T02:06:19.349Z,2.34
2023-03-16T02:07:10.113Z,2.33
2023-03-16T02:08:00.902Z,2.31
2023-03-16T02:08:51.692Z,2.31
2023-03-16T02:09:42.491Z,2.31
2023-03-16T02:10:33.303Z,2.31
2023-03-16T02:11:24.067Z,2.31
2023-03-16T02:12:14.874Z,2.33
2023-03-16T02:13:05.656Z,2.31
2023-03-16T02:13:56.445Z,2.28
2023-03-16T02:14:47.234Z,2.30
2023-03-16T02:15:38.058Z,2.31
2023-03-16T02:16:28.811Z,2.31
2023-03-16T02:17:19.602Z,2.28
2023-03-16T02:18:10.395Z,2.30
2023-03-16T02:19:01.182Z,2.30
2023-03-16T02:19:51.958Z,2.28
2023-03-16T02:20:42.758Z,2.30
2023-03-16T02:21:33.522Z,2.28
2023-03-16T02:22:24.306Z,2.30
2023-03-16T02:23:15.094Z,2.28
2023-03-16T02:24:05.900Z,2.28
2023-03-16T02:24:56.685Z,2.30
2023-03-16T02:25:47.487Z,2.28
2023-03-16T02:26:38.252Z,2.26
2023-03-16T02:27:29.040Z,2.26
2023-03-16T02:28:19.846Z,2.26
2023-03-16T02:29:10.658Z,2.23
2023-03-16T02:30:01.473Z,2.23
2023-03-16T02:30:52.266Z,2.22
2023-03-16T02:31:43.013Z,2.20
2023-03-16T02:32:33.857Z,2.20
2023-03-16T02:33:24.590Z,2.17
2023-03-16T02:34:15.363Z,2.17
2023-03-16T02:35:06.152Z,2.17
2023-03-16T02:35:57.016Z,2.19
2023-03-16T02:36:47.752Z,2.17
2023-03-16T02:37:38.537Z,2.16
2023-03-16T02:38:29.308Z,2.15
2023-03-16T02:39:20.097Z,2.16
2023-03-16T02:40:10.873Z,2.16
2023-03-16T02:41:01.667Z,2.17
2023-03-16T02:41:52.444Z,2.17
2023-03-16T02:42:43.475Z,2.16
2023-03-16T02:43:34.262Z,2.17
2023-03-16T02:44:25.047Z,2.15
2023-03-16T02:45:15.836Z,2.15
2023-03-16T02:46:06.688Z,2.15
2023-03-16T02:46:57.424Z,2.16
2023-03-16T02:47:48.217Z,2.15
2023-03-16T02:48:39.011Z,2.16
2023-03-16T02:49:29.816Z,2.17
2023-03-16T02:50:20.625Z,2.15
2023-03-16T02:51:11.419Z,2.15
2023-03-16T02:52:02.146Z,2.15
2023-03-16T02:52:52.940Z,2.15
2023-03-16T02:53:43.723Z,2.13
2023-03-16T02:54:34.530Z,2.15
2023-03-16T02:55:25.295Z,2.13
2023-03-16T02:56:16.087Z,2.12
2023-03-16T02:57:06.852Z,2.13
2023-03-16T02:57:57.643Z,2.12
2023-03-16T02:58:48.424Z,2.10
2023-03-16T02:59:39.208Z,2.10
2023-03-16T03:00:30.340Z,2.10
2023-03-16T03:01:21.116Z,2.09
2023-03-16T03:02:11.899Z,2.10
2023-03-16T03:03:02.697Z,2.10
2023-03-16T03:03:53.489Z,2.10
2023-03-16T03:04:44.272Z,2.08
2023-03-16T03:05:35.061Z,2.09
2023-03-16T03:06:25.852Z,2.09
2023-03-16T03:07:16.615Z,2.06
2023-03-16T03:08:07.414Z,2.08
2023-03-16T03:08:58.177Z,2.09
2023-03-16T03:09:48.960Z,2.08
2023-03-16T03:10:39.746Z,2.06
2023-03-16T03:11:30.570Z,2.06
2023-03-16T03:12:21.323Z,2.06
2023-03-16T03:13:12.112Z,2.06
2023-03-16T03:14:02.908Z,2.08
2023-03-16T03:14:53.689Z,2.04
2023-03-16T03:15:44.467Z,2.06
2023-03-16T03:16:35.304Z,2.06
2023-03-16T03:17:26.038Z,2.08
2023-03-16T03:18:16.816Z,2.08
2023-03-16T03:19:07.615Z,2.06
2023-03-16T03:19:58.382Z,2.04
2023-03-16T03:20:49.159Z,2.06
2023-03-16T03:21:39.964Z,2.06
2023-03-16T03:22:30.757Z,2.06
2023-03-16T03:23:21.544Z,2.08
2023-03-16T03:24:12.328Z,2.08
2023-03-16T03:25:03.136Z,2.08
2023-03-16T03:25:53.910Z,2.08
2023-03-16T03:26:44.720Z,2.09
2023-03-16T03:27:35.621Z,2.08
2023-03-16T03:28:26.361Z,2.08
2023-03-16T03:29:17.153Z,2.08
2023-03-16T03:30:07.935Z,2.09
2023-03-16T03:30:58.722Z,2.10
2023-03-16T03:31:49.586Z,2.06
2023-03-16T03:32:40.411Z,2.06
2023-03-16T03:33:31.154Z,2.06
2023-03-16T03:34:21.941Z,2.04
2023-03-16T03:35:12.730Z,2.06
2023-03-16T03:36:03.595Z,2.04
2023-03-16T03:36:54.331Z,2.04
2023-03-16T03:37:45.114Z,2.06
2023-03-16T03:38:35.905Z,2.06
2023-03-16T03:39:26.671Z,2.04
2023-03-16T03:40:17.479Z,2.02
2023-03-16T03:41:08.252Z,2.04
2023-03-16T03:41:59.077Z,2.02
2023-03-16T03:42:49.855Z,2.02
2023-03-16T03:43:40.644Z,2.04
2023-03-16T03:44:31.415Z,2.06
2023-03-16T03:45:22.189Z,2.01
2023-03-16T03:46:13.041Z,2.02
2023-03-16T03:47:03.871Z,2.02
2023-03-16T03:47:54.592Z,2.04
2023-03-16T03:48:45.398Z,2.01
2023-03-16T03:49:36.177Z,2.04
2023-03-16T03:50:27.224Z,2.02
2023-03-16T03:51:18.066Z,2.01
2023-03-16T03:52:08.845Z,2.02
2023-03-16T03:52:59.627Z,2.01
2023-03-16T03:53:50.438Z,2.04
2023-03-16T03:54:41.229Z,2.01
2023-03-16T03:55:32.006Z,1.99
2023-03-16T03:56:22.791Z,2.01
2023-03-16T03:57:13.599Z,2.02
2023-03-16T03:58:04.357Z,2.01
2023-03-16T03:58:55.144Z,2.01
2023-03-16T03:59:45.924Z,1.99
2023-03-16T04:00:36.742Z,1.98
2023-03-16T04:01:27.564Z,1.98
2023-03-16T04:02:18.392Z,1.98
2023-03-16T04:03:09.327Z,1.97
2023-03-16T04:04:00.132Z,1.97
2023-03-16T04:04:50.898Z,1.94
2023-03-16T04:05:41.701Z,1.97
2023-03-16T04:06:32.461Z,1.94
2023-03-16T04:07:23.270Z,1.93
2023-03-16T04:08:14.039Z,1.94
2023-03-16T04:09:04.848Z,1.93
2023-03-16T04:09:55.621Z,1.90
2023-03-16T04:10:46.404Z,1.90
2023-03-16T04:11:37.171Z,1.91
2023-03-16T04:12:27.976Z,1.90
2023-03-16T04:13:18.739Z,1.91
2023-03-16T04:14:09.540Z,1.89
2023-03-16T04:15:00.295Z,1.90
2023-03-16T04:15:51.078Z,1.89
2023-03-16T04:16:41.901Z,1.90
2023-03-16T04:17:32.675Z,1.91
2023-03-16T04:18:23.464Z,1.89
2023-03-16T04:19:14.281Z,1.91
2023-03-16T04:20:05.036Z,1.90
2023-03-16T04:20:55.828Z,1.90
2023-03-16T04:21:46.604Z,1.89
2023-03-16T04:22:37.392Z,1.91
2023-03-16T04:23:28.185Z,1.91
2023-03-16T04:24:18.974Z,1.91
2023-03-16T04:25:11.412Z,1.93
2023-03-16T04:26:00.969Z,1.93
2023-03-16T04:26:51.725Z,1.91
2023-03-16T04:27:42.545Z,1.94
2023-03-16T04:28:33.296Z,1.93
2023-03-16T04:29:24.085Z,1.93
2023-03-16T04:30:14.866Z,1.94
2023-03-16T04:31:05.670Z,1.97
2023-03-16T04:31:56.437Z,1.97
2023-03-16T04:32:47.275Z,1.97
2023-03-16T04:33:38.050Z,1.94
2023-03-16T04:34:28.827Z,1.98
2023-03-16T04:35:19.634Z,1.98
2023-03-16T04:36:10.431Z,1.98
2023-03-16T04:37:01.205Z,1.99
2023-03-16T04:37:51.987Z,1.98
2023-03-16T04:38:42.794Z,1.98
2023-03-16T04:39:33.568Z,1.99
2023-03-16T04:40:24.351Z,1.98
2023-03-16T04:41:15.146Z,1.99
2023-03-16T04:42:05.897Z,1.99
2023-03-16T04:42:56.705Z,1.99
2023-03-16T04:43:47.465Z,1.99
2023-03-16T04:44:38.248Z,1.99
2023-03-16T04:45:29.001Z,2.01
2023-03-16T04:46:19.804Z,2.02
2023-03-16T04:47:10.496Z,2.06
2023-03-16T04:48:01.284Z,2.06
2023-03-16T04:48:52.034Z,2.08
2023-03-16T04:49:42.801Z,2.06
2023-03-16T04:50:33.605Z,2.08
2023-03-16T04:51:24.393Z,2.08
2023-03-16T04:52:15.192Z,2.09
2023-03-16T04:53:05.959Z,2.09
2023-03-16T04:53:56.724Z,2.10
2023-03-16T04:54:47.514Z,2.09
2023-03-16T04:55:38.301Z,2.10
2023-03-16T04:56:29.118Z,2.10
2023-03-16T04:57:19.890Z,2.10
2023-03-16T04:58:10.696Z,2.13
2023-03-16T04:59:01.452Z,2.13
2023-03-16T04:59:52.131Z,2.16
2023-03-16T05:00:42.879Z,2.15
2023-03-16T05:01:33.712Z,2.17
2023-03-16T05:02:24.486Z,2.19
2023-03-16T05:03:15.218Z,2.19
2023-03-16T05:04:05.977Z,2.19
2023-03-16T05:04:56.759Z,2.20
2023-03-16T05:05:47.693Z,2.22
2023-03-16T05:06:38.528Z,2.23
2023-03-16T05:07:29.309Z,2.23
2023-03-16T05:08:20.092Z,2.23
2023-03-16T05:09:10.884Z,2.23
2023-03-16T05:10:01.684Z,2.26
2023-03-16T05:10:52.623Z,2.28
2023-03-16T05:11:43.510Z,2.26
2023-03-16T05:12:34.336Z,2.27
2023-03-16T05:13:25.414Z,2.26
2023-03-16T05:14:16.178Z,2.26
2023-03-16T05:15:06.980Z,2.27
2023-03-16T05:15:57.913Z,2.27
2023-03-16T05:16:48.729Z,2.28
2023-03-16T05:17:39.597Z,2.28
2023-03-16T05:18:30.453Z,2.28
2023-03-16T05:19:21.336Z,2.28
2023-03-16T05:20:14.621Z,2.28
2023-03-16T05:21:03.034Z,2.30
2023-03-16T05:21:53.912Z,2.30
2023-03-16T05:22:44.774Z,2.30
2023-03-16T05:23:35.642Z,2.30
2023-03-16T05:24:26.525Z,2.30
2023-03-16T05:25:17.463Z,2.31
2023-03-16T05:26:08.268Z,2.27
2023-03-16T05:26:59.149Z,2.28
2023-03-16T05:27:50.026Z,2.31
2023-03-16T05:28:40.908Z,2.31
2023-03-16T05:29:31.744Z,2.31
2023-03-16T05:30:22.636Z,2.30
2023-03-16T05:31:13.625Z,2.30
2023-03-16T05:32:04.466Z,2.31
2023-03-16T05:32:55.452Z,2.31
2023-03-16T05:33:46.317Z,2.31
2023-03-16T05:34:37.213Z,2.30
2023-03-16T05:35:28.201Z,2.33
2023-03-16T05:36:19.081Z,2.31
2023-03-16T05:37:09.964Z,2.31
2023-03-16T05:38:00.852Z,2.31
2023-03-16T05:38:51.740Z,2.33
2023-03-16T05:39:42.608Z,2.31
2023-03-16T05:40:33.506Z,2.31
2023-03-16T05:41:24.376Z,2.30
2023-03-16T05:42:15.253Z,2.30
2023-03-16T05:43:06.178Z,2.31
2023-03-16T05:43:57.076Z,2.31
2023-03-16T05:44:47.929Z,2.31
2023-03-16T05:45:38.805Z,2.31
2023-03-16T05:46:29.739Z,2.31
2023-03-16T05:47:20.583Z,2.30
2023-03-16T05:48:11.477Z,2.31
2023-03-16T05:49:02.370Z,2.31
2023-03-16T05:49:53.272Z,2.30
2023-03-16T05:50:44.169Z,2.31
2023-03-16T05:51:35.045Z,2.28
2023-03-16T05:52:25.964Z,2.30
2023-03-16T05:53:16.851Z,2.30
2023-03-16T05:54:07.707Z,2.27
2023-03-16T05:54:58.581Z,2.31
2023-03-16T05:55:49.483Z,2.31
2023-03-16T05:56:40.371Z,2.30
2023-03-16T05:57:31.250Z,2.28
2023-03-16T05:58:22.144Z,2.28
2023-03-16T05:59:13.057Z,2.31
2023-03-16T06:00:03.939Z,2.30
2023-03-16T06:00:54.813Z,2.31
2023-03-16T06:01:45.709Z,2.31
2023-03-16T06:02:36.629Z,2.31
2023-03-16T06:03:27.491Z,2.31
2023-03-16T06:04:18.461Z,2.33
2023-03-16T06:05:09.336Z,2.34
2023-03-16T06:06:00.249Z,2.34
2023-03-16T06:06:51.163Z,2.35
2023-03-16T06:07:42.075Z,2.35
2023-03-16T06:08:32.969Z,2.35
2023-03-16T06:09:23.870Z,2.37
2023-03-16T06:10:14.787Z,2.37
2023-03-16T06:11:05.711Z,2.40
2023-03-16T06:11:56.597Z,2.38
2023-03-16T06:12:47.492Z,2.40
2023-03-16T06:13:38.417Z,2.38
2023-03-16T06:14:29.340Z,2.40
2023-03-16T06:15:20.227Z,2.38
2023-03-16T06:16:11.220Z,2.41
2023-03-16T06:17:02.061Z,2.44
2023-03-16T06:17:52.983Z,2.44
2023-03-16T06:18:43.892Z,2.45
2023-03-16T06:19:34.804Z,2.46
2023-03-16T06:20:25.746Z,2.48
2023-03-16T06:21:16.654Z,2.48
2023-03-16T06:22:07.629Z,2.51
2023-03-16T06:22:58.476Z,2.49
2023-03-16T06:23:49.403Z,2.52
2023-03-16T06:24:40.302Z,2.52
2023-03-16T06:25:31.243Z,2.53
2023-03-16T06:26:22.155Z,2.55
2023-03-16T06:27:13.077Z,2.55
2023-03-16T06:28:03.985Z,2.58
2023-03-16T06:28:54.891Z,2.58
2023-03-16T06:29:45.834Z,2.58
2023-03-16T06:30:36.708Z,2.59
2023-03-16T06:31:27.786Z,2.61
2023-03-16T06:32:18.652Z,2.63
2023-03-16T06:33:09.654Z,2.64
2023-03-16T06:34:00.530Z,2.64
2023-03-16T06:34:51.433Z,2.67
2023-03-16T06:35:42.364Z,2.67
2023-03-16T06:36:33.243Z,2.69
2023-03-16T06:37:24.139Z,2.71
2023-03-16T06:38:15.057Z,2.70
2023-03-16T06:39:05.977Z,2.74
2023-03-16T06:39:56.885Z,2.74
2023-03-16T06:40:47.790Z,2.77
2023-03-16T06:41:38.708Z,2.79
2023-03-16T06:42:29.612Z,2.79
2023-03-16T06:43:20.520Z,2.82
2023-03-16T06:44:11.437Z,2.84
2023-03-16T06:45:02.380Z,2.85
2023-03-16T06:45:53.378Z,2.88
2023-03-16T06:46:44.251Z,2.88
2023-03-16T06:47:35.165Z,2.91
2023-03-16T06:48:26.064Z,2.95
2023-03-16T06:49:16.987Z,2.98
2023-03-16T06:50:07.896Z,3.00
2023-03-16T06:50:58.812Z,3.02
2023-03-16T06:51:49.712Z,3.02
2023-03-16T06:52:40.633Z,3.06
2023-03-16T06:53:31.541Z,3.05
2023-03-16T06:54:22.448Z,3.07
2023-03-16T06:55:13.348Z,3.10
2023-03-16T06:56:04.271Z,3.10
2023-03-16T06:56:55.168Z,3.13
2023-03-16T06:57:46.131Z,3.13
2023-03-16T06:58:37.023Z,3.16
2023-03-16T06:59:27.922Z,3.20
2023-03-16T07:00:18.852Z,3.20
2023-03-16T07:01:09.831Z,3.21
2023-03-16T07:02:00.696Z,3.23
2023-03-16T07:02:51.626Z,3.27
2023-03-16T07:03:42.561Z,3.30
2023-03-16T07:04:33.519Z,3.30
2023-03-16T07:05:24.406Z,3.34
2023-03-16T07:06:15.307Z,3.36
2023-03-16T07:07:06.227Z,3.40
2023-03-16T07:07:57.127Z,3.40
2023-03-16T07:08:48.030Z,3.44
2023-03-16T07:09:41.531Z,3.44
2023-03-16T07:10:30.064Z,3.47
2023-03-16T07:11:20.464Z,3.47
2023-03-16T07:12:11.377Z,3.53
2023-03-16T07:13:02.282Z,3.54
2023-03-16T07:13:53.191Z,3.57
2023-03-16T07:14:44.101Z,3.58
2023-03-16T07:15:35.033Z,3.60
2023-03-16T07:16:25.943Z,3.64
2023-03-16T07:17:16.836Z,3.64
2023-03-16T07:18:07.754Z,3.65
2023-03-16T07:18:58.691Z,3.67
2023-03-16T07:19:49.567Z,3.67
2023-03-16T07:20:40.484Z,3.70
2023-03-16T07:21:31.385Z,3.70
2023-03-16T07:22:22.305Z,3.71
2023-03-16T07:23:13.216Z,3.71
2023-03-16T07:24:04.130Z,3.72
2023-03-16T07:24:55.055Z,3.75
2023-03-16T07:25:45.965Z,3.75
2023-03-16T07:26:36.876Z,3.76
2023-03-16T07:27:27.783Z,3.76
2023-03-16T07:28:18.689Z,3.79
2023-03-16T07:29:09.611Z,3.79
2023-03-16T07:30:00.556Z,3.82
2023-03-16T07:31:03.081Z,3.80
2023-03-16T07:31:43.370Z,3.83
2023-03-16T07:32:33.087Z,3.83
2023-03-16T07:33:23.936Z,3.85
2023-03-16T07:34:14.850Z,3.85
2023-03-16T07:35:05.745Z,3.88
2023-03-16T07:35:56.722Z,3.88
2023-03-16T07:36:47.612Z,3.92
2023-03-16T07:37:38.551Z,3.94
2023-03-16T07:38:29.413Z,3.97
2023-03-16T07:39:20.319Z,4.00
2023-03-16T07:40:11.223Z,4.01
2023-03-16T07:41:02.155Z,4.01
2023-03-16T07:41:53.053Z,4.03
2023-03-16T07:42:44.008Z,4.06
2023-03-16T07:43:34.979Z,4.07
2023-03-16T07:44:25.908Z,4.08
2023-03-16T07:45:16.804Z,4.12
2023-03-16T07:46:07.765Z,4.14
2023-03-16T07:46:58.651Z,4.15
2023-03-16T07:47:49.561Z,4.16
2023-03-16T07:48:40.601Z,4.19
2023-03-16T07:49:31.507Z,4.24
2023-03-16T07:50:22.372Z,4.26
2023-03-16T07:51:13.283Z,4.29
2023-03-16T07:52:04.161Z,4.33
2023-03-16T07:52:55.103Z,4.36
2023-03-16T07:53:46.018Z,4.37
2023-03-16T07:54:36.925Z,4.42
2023-03-16T07:55:27.832Z,4.42
2023-03-16T07:56:18.763Z,4.46
2023-03-16T07:57:09.667Z,4.51
2023-03-16T07:58:00.582Z,4.54
2023-03-16T07:58:51.543Z,4.58
2023-03-16T07:59:42.445Z,4.58
2023-03-16T08:00:33.364Z,4.58
2023-03-16T08:01:24.375Z,4.62
2023-03-16T08:02:15.337Z,4.64
2023-03-16T08:03:06.317Z,4.67
2023-03-16T08:03:57.224Z,4.70
2023-03-16T08:04:48.120Z,4.73
2023-03-16T08:05:39.031Z,4.72
2023-03-16T08:06:29.961Z,4.76
2023-03-16T08:07:20.857Z,4.77
2023-03-16T08:08:11.778Z,4.79
2023-03-16T08:09:02.715Z,4.83
2023-03-16T08:09:53.634Z,4.84
2023-03-16T08:10:44.552Z,4.88
2023-03-16T08:11:35.466Z,4.89
2023-03-16T08:12:26.414Z,4.92
2023-03-16T08:13:17.320Z,4.95
2023-03-16T08:14:08.243Z,4.99
2023-03-16T08:14:59.190Z,5.02
2023-03-16T08:15:50.163Z,5.09
2023-03-16T08:16:41.073Z,5.12
2023-03-16T08:17:31.984Z,5.16
2023-03-16T08:18:22.930Z,5.20
2023-03-16T08:19:13.881Z,5.25
2023-03-16T08:20:04.811Z,5.32
2023-03-16T08:20:55.799Z,5.35
2023-03-16T08:22:00.785Z,5.38
2023-03-16T08:22:38.649Z,5.45
2023-03-16T08:23:28.352Z,5.48
2023-03-16T08:24:19.269Z,5.52
2023-03-16T08:25:10.206Z,5.57
2023-03-16T08:26:01.163Z,5.63
2023-03-16T08:26:52.032Z,5.63
2023-03-16T08:27:43.368Z,5.67
2023-03-16T08:28:33.687Z,5.70
2023-03-16T08:29:24.568Z,5.74
2023-03-16T08:30:15.493Z,5.75
2023-03-16T08:31:06.467Z,5.81
2023-03-16T08:31:57.355Z,5.85
2023-03-16T08:32:48.299Z,5.86
2023-03-16T08:33:39.206Z,5.91
2023-03-16T08:34:30.155Z,5.93
2023-03-16T08:35:21.090Z,5.98
2023-03-16T08:36:12.120Z,6.03
2023-03-16T08:37:03.024Z,6.06
2023-03-16T08:37:53.976Z,6.11
2023-03-16T08:38:50.925Z,6.16
2023-03-16T08:39:35.859Z,6.22
2023-03-16T08:40:26.900Z,6.29
2023-03-16T08:41:17.880Z,6.35
2023-03-16T08:42:08.830Z,6.40
2023-03-16T08:42:59.767Z,6.44
2023-03-16T08:43:52.268Z,6.51
2023-03-16T08:44:41.420Z,6.58
2023-03-16T08:45:32.346Z,6.63
2023-03-16T08:46:23.294Z,6.72
2023-03-16T08:47:14.251Z,6.87
2023-03-16T08:48:05.181Z,7.08
2023-03-16T08:48:56.117Z,7.41
2023-03-16T08:49:47.105Z,7.89
2023-03-16T08:50:38.046Z,8.53
2023-03-16T08:51:28.992Z,9.10
2023-03-16T08:52:19.951Z,9.67
2023-03-16T08:53:10.897Z,10.21
2023-03-16T08:54:01.869Z,10.83
2023-03-16T08:55:03.117Z,11.46
2023-03-16T08:55:44.792Z,12.16
2023-03-16T08:56:34.556Z,12.81
2023-03-16T08:57:25.512Z,13.24
2023-03-16T08:58:16.472Z,13.54
2023-03-16T08:59:10.460Z,13.83
2023-03-16T08:59:59.378Z,14.12
2023-03-16T09:00:50.572Z,14.42
2023-03-16T09:01:40.135Z,14.72
2023-03-16T09:02:31.057Z,15.06
2023-03-16T09:03:22.004Z,15.43
2023-03-16T09:04:13.014Z,15.94
2023-03-16T09:05:03.973Z,16.60
2023-03-16T09:05:54.921Z,17.32
2023-03-16T09:06:47.603Z,17.91
2023-03-16T09:07:36.946Z,18.36
2023-03-16T09:08:27.902Z,18.67
2023-03-16T09:09:18.868Z,18.82
2023-03-16T09:10:09.836Z,18.91
2023-03-16T09:11:00.795Z,19.08
2023-03-16T09:11:51.775Z,19.47
2023-03-16T09:12:42.763Z,20.05
2023-03-16T09:13:33.704Z,20.64
2023-03-16T09:14:24.665Z,21.13
2023-03-16T09:15:15.651Z,21.53
2023-03-16T09:16:06.679Z,21.95
2023-03-16T09:16:57.593Z,22.35
2023-03-16T09:17:48.576Z,22.68
2023-03-16T09:18:39.523Z,22.82
2023-03-16T09:19:37.714Z,22.89
2023-03-16T09:20:34.813Z,22.94
2023-03-16T09:21:13.388Z,22.82
2023-03-16T09:22:03.074Z,22.56
2023-03-16T09:22:54.002Z,21.98
2023-03-16T09:23:44.940Z,21.16
2023-03-16T09:24:35.889Z,20.25
2023-03-16T09:25:26.837Z,19.40
2023-03-16T09:26:17.768Z,18.57
2023-03-16T09:27:08.759Z,17.82
2023-03-16T09:27:59.633Z,17.11
2023-03-16T09:28:50.571Z,16.45
2023-03-16T09:29:41.511Z,15.89
2023-03-16T09:30:32.463Z,15.43
2023-03-16T09:31:23.446Z,15.08
2023-03-16T09:32:14.355Z,14.74
2023-03-16T09:33:05.174Z,14.47
2023-03-16T09:33:56.072Z,14.17
2023-03-16T09:34:47.006Z,13.94
2023-03-16T09:35:38.070Z,13.73
2023-03-16T09:36:28.967Z,13.55
2023-03-16T09:37:19.934Z,13.38
2023-03-16T09:38:10.860Z,13.21
2023-03-16T09:39:01.783Z,13.04
2023-03-16T09:39:55.861Z,12.92
2023-03-16T09:40:46.944Z,12.82
2023-03-16T09:41:34.294Z,12.74
2023-03-16T09:42:25.217Z,12.66
2023-03-16T09:43:16.157Z,12.54
2023-03-16T09:44:07.092Z,12.44
2023-03-16T09:44:58.021Z,12.29
2023-03-16T09:45:49.007Z,12.16
2023-03-16T09:46:39.894Z,12.09
2023-03-16T09:47:30.828Z,11.99
2023-03-16T09:48:21.808Z,11.87
2023-03-16T09:49:12.727Z,11.78
2023-03-16T09:50:03.672Z,11.71
2023-03-16T09:50:55.137Z,11.68
2023-03-16T09:51:45.585Z,11.65
2023-03-16T09:52:36.523Z,11.61
2023-03-16T09:53:27.452Z,11.56
2023-03-16T09:54:18.401Z,11.53
2023-03-16T09:55:09.330Z,11.50
2023-03-16T09:56:00.267Z,11.49
2023-03-16T09:56:51.226Z,11.47
2023-03-16T09:57:42.139Z,11.44
2023-03-16T09:58:33.114Z,11.47
2023-03-16T09:59:24.027Z,11.50
2023-03-16T10:00:14.969Z,11.53
2023-03-16T10:01:06.003Z,11.57
2023-03-16T10:01:56.887Z,11.61
2023-03-16T10:02:47.819Z,11.64
2023-03-16T10:03:38.826Z,11.67
2023-03-16T10:04:29.719Z,11.72
2023-03-16T10:05:20.669Z,11.77
2023-03-16T10:06:32.600Z,11.83
2023-03-16T10:07:23.800Z,11.93
2023-03-16T10:07:54.007Z,12.01
2023-03-16T10:08:44.967Z,12.06
2023-03-16T10:09:35.914Z,12.09
2023-03-16T10:10:27.154Z,12.12
2023-03-16T10:11:32.170Z,12.16
2023-03-16T10:12:08.454Z,12.21
2023-03-16T10:13:00.148Z,12.29
2023-03-16T10:13:50.520Z,12.30
2023-03-16T10:14:41.496Z,12.33
2023-03-16T10:15:32.398Z,12.37
2023-03-16T10:16:23.406Z,12.38
2023-03-16T10:17:14.292Z,12.46
2023-03-16T10:18:05.237Z,12.67
2023-03-16T10:18:56.200Z,13.03
2023-03-16T10:19:47.117Z,13.47
2023-03-16T10:20:38.061Z,13.88
2023-03-16T10:21:28.982Z,14.06
2023-03-16T10:22:19.914Z,14.12
2023-03-16T10:23:10.854Z,14.17
2023-03-16T10:24:01.807Z,14.13
2023-03-16T10:24:52.749Z,14.09
2023-03-16T10:25:43.724Z,13.92
2023-03-16T10:26:34.636Z,13.73
2023-03-16T10:27:25.572Z,13.54
2023-03-16T10:28:16.514Z,13.33
2023-03-16T10:29:07.475Z,13.09
2023-03-16T10:29:58.410Z,12.85
2023-03-16T10:30:49.338Z,12.64
2023-03-16T10:31:40.351Z,12.46
2023-03-16T10:32:31.310Z,12.29
2023-03-16T10:33:22.217Z,12.15
2023-03-16T10:34:13.184Z,12.02
2023-03-16T10:35:04.092Z,11.89
2023-03-16T10:35:55.062Z,11.80
2023-03-16T10:36:45.978Z,11.70
2023-03-16T10:37:36.897Z,11.62
2023-03-16T10:38:27.842Z,11.54
2023-03-16T10:39:18.778Z,11.49
2023-03-16T10:40:09.721Z,11.44
2023-03-16T10:41:00.703Z,11.41
2023-03-16T10:41:51.605Z,11.38
2023-03-16T10:42:42.538Z,11.36
2023-03-16T10:43:33.472Z,11.34
2023-03-16T10:44:24.424Z,11.34
2023-03-16T10:45:15.363Z,11.35
2023-03-16T10:46:06.371Z,11.35
2023-03-16T10:46:57.339Z,11.36
2023-03-16T10:47:48.232Z,11.34
2023-03-16T10:48:39.188Z,11.35
2023-03-16T10:49:30.152Z,11.34
2023-03-16T10:50:21.196Z,11.34
2023-03-16T10:51:12.135Z,11.39
2023-03-16T10:52:03.240Z,11.44
2023-03-16T10:52:54.098Z,11.52
2023-03-16T10:53:45.041Z,11.57
2023-03-16T10:54:35.985Z,11.59
2023-03-16T10:55:27.287Z,11.68
2023-03-16T10:56:17.646Z,11.75
2023-03-16T10:57:08.586Z,11.82
2023-03-16T10:57:59.512Z,11.86
2023-03-16T10:58:50.463Z,11.93
2023-03-16T10:59:41.398Z,11.99
2023-03-16T11:00:32.389Z,11.99
2023-03-16T11:01:23.371Z,12.04
2023-03-16T11:02:14.292Z,12.04
2023-03-16T11:03:05.235Z,12.05
2023-03-16T11:03:56.180Z,12.06
2023-03-16T11:04:47.165Z,12.11
2023-03-16T11:05:38.063Z,12.15
2023-03-16T11:06:29.003Z,12.20
2023-03-16T11:07:19.965Z,12.23
2023-03-16T11:08:10.886Z,12.24
2023-03-16T11:09:01.822Z,12.29
2023-03-16T11:09:52.757Z,12.29
2023-03-16T11:10:55.160Z,12.27
2023-03-16T11:11:35.618Z,12.23